Greenwich, United Kingdom
Current Conditions -  °F | °C
As of 11:50 AM on Sunday 25 Jan 2015 (Local Time) from EGLC Reporting Station
Broken Clouds Broken Clouds  
Wind Chill: 40°   Ceiling: 3000
Heat Index: 45°   Visibility: 6mi
Dew Point: 34°   Wind: 9mph
Humidity: 66%   Direction: 250°WSW
Pressure: 30.42"   Gusts: NA
Location:  51.48°N, 0.01°W
Report Text: EGLC 251150Z 25008KT 9999 BKN030 07/01 Q1030
Loading
Personal Weather Stations






























Interactive Weather Map New forecast layout! Learn more

10-Day Weather Forecast

Advertisements
Track Severe Weather on mobile